sensor_id;sensor_type;location;lat;lon;timestamp;temperature;humidity
2387;DHT22;49473;50.772;8.768;2023-12-20T00:01:39;5.80;99.90
2387;DHT22;49473;50.772;8.768;2023-12-20T00:04:06;5.80;99.90
2387;DHT22;49473;50.772;8.768;2023-12-20T00:06:33;5.80;99.90
2387;DHT22;49473;50.772;8.768;2023-12-20T00:08:59;5.80;99.90
2387;DHT22;49473;50.772;8.768;2023-12-20T00:11:26;5.80;99.90
2387;DHT22;49473;50.772;8.768;2023-12-20T00:13:54;5.90;99.90
2387;DHT22;49473;50.772;8.768;2023-12-20T00:16:21;5.80;99.90
2387;DHT22;49473;50.772;8.768;2023-12-20T00:18:47;5.90;99.90
2387;DHT22;49473;50.772;8.768;2023-12-20T00:21:14;5.90;99.90
2387;DHT22;49473;50.772;8.768;2023-12-20T00:23:41;5.90;99.90
2387;DHT22;49473;50.772;8.768;2023-12-20T00:26:08;5.90;99.90
2387;DHT22;49473;50.772;8.768;2023-12-20T00:28:34;5.90;99.90
2387;DHT22;49473;50.772;8.768;2023-12-20T00:31:03;5.90;99.90
2387;DHT22;49473;50.772;8.768;2023-12-20T00:33:31;5.90;99.90
2387;DHT22;49473;50.772;8.768;2023-12-20T00:35:57;5.90;99.90
2387;DHT22;49473;50.772;8.768;2023-12-20T00:38:24;5.90;99.90
2387;DHT22;49473;50.772;8.768;2023-12-20T00:40:51;5.80;99.90
2387;DHT22;49473;50.772;8.768;2023-12-20T00:43:18;5.80;99.90
2387;DHT22;49473;50.772;8.768;2023-12-20T00:45:45;5.80;99.90
2387;DHT22;49473;50.772;8.768;2023-12-20T00:48:13;5.80;99.90
2387;DHT22;49473;50.772;8.768;2023-12-20T00:50:39;5.80;99.90
2387;DHT22;49473;50.772;8.768;2023-12-20T00:53:07;5.80;99.90
2387;DHT22;49473;50.772;8.768;2023-12-20T00:55:34;5.80;99.90
2387;DHT22;49473;50.772;8.768;2023-12-20T00:58:00;5.80;99.90
2387;DHT22;49473;50.772;8.768;2023-12-20T01:00:27;5.80;99.90
2387;DHT22;49473;50.772;8.768;2023-12-20T01:02:54;5.80;99.90
2387;DHT22;49473;50.772;8.768;2023-12-20T01:05:22;5.80;99.90
2387;DHT22;49473;50.772;8.768;2023-12-20T01:07:49;5.80;99.90
2387;DHT22;49473;50.772;8.768;2023-12-20T01:10:15;5.80;99.90
2387;DHT22;49473;50.772;8.768;2023-12-20T01:12:43;5.80;99.90
2387;DHT22;49473;50.772;8.768;2023-12-20T01:15:10;5.80;99.90
2387;DHT22;49473;50.772;8.768;2023-12-20T01:17:37;5.80;99.90
2387;DHT22;49473;50.772;8.768;2023-12-20T01:20:04;5.80;99.90
2387;DHT22;49473;50.772;8.768;2023-12-20T01:22:32;5.80;99.90
2387;DHT22;49473;50.772;8.768;2023-12-20T01:25:01;5.80;99.90
2387;DHT22;49473;50.772;8.768;2023-12-20T01:27:28;5.80;99.90
2387;DHT22;49473;50.772;8.768;2023-12-20T01:29:56;5.80;99.90
2387;DHT22;49473;50.772;8.768;2023-12-20T01:32:23;5.70;99.90
2387;DHT22;49473;50.772;8.768;2023-12-20T01:34:49;5.80;99.90
2387;DHT22;49473;50.772;8.768;2023-12-20T01:37:16;5.80;99.90
2387;DHT22;49473;50.772;8.768;2023-12-20T01:39:44;5.80;99.90
2387;DHT22;49473;50.772;8.768;2023-12-20T01:42:11;5.80;99.90
2387;DHT22;49473;50.772;8.768;2023-12-20T01:44:38;5.80;99.90
2387;DHT22;49473;50.772;8.768;2023-12-20T01:47:05;5.80;99.90
2387;DHT22;49473;50.772;8.768;2023-12-20T01:49:32;5.80;99.90
2387;DHT22;49473;50.772;8.768;2023-12-20T01:51:59;5.90;99.90
2387;DHT22;49473;50.772;8.768;2023-12-20T01:54:25;5.90;99.90
2387;DHT22;49473;50.772;8.768;2023-12-20T01:56:53;5.90;99.90
2387;DHT22;49473;50.772;8.768;2023-12-20T01:59:21;5.90;99.90
2387;DHT22;49473;50.772;8.768;2023-12-20T02:01:48;5.90;99.90
2387;DHT22;49473;50.772;8.768;2023-12-20T02:04:15;5.90;99.90
2387;DHT22;49473;50.772;8.768;2023-12-20T02:06:42;5.90;99.90
2387;DHT22;49473;50.772;8.768;2023-12-20T02:09:10;5.90;99.90
2387;DHT22;49473;50.772;8.768;2023-12-20T02:11:36;6.00;99.90
2387;DHT22;49473;50.772;8.768;2023-12-20T02:14:05;6.00;99.90
2387;DHT22;49473;50.772;8.768;2023-12-20T02:16:32;6.10;99.90
2387;DHT22;49473;50.772;8.768;2023-12-20T02:18:59;6.10;99.90
2387;DHT22;49473;50.772;8.768;2023-12-20T02:21:32;6.10;99.90
2387;DHT22;49473;50.772;8.768;2023-12-20T02:23:59;6.10;99.90
2387;DHT22;49473;50.772;8.768;2023-12-20T02:26:27;6.10;99.90
2387;DHT22;49473;50.772;8.768;2023-12-20T02:28:54;6.00;99.90
2387;DHT22;49473;50.772;8.768;2023-12-20T02:31:21;6.10;99.90
2387;DHT22;49473;50.772;8.768;2023-12-20T02:33:47;6.10;99.90
2387;DHT22;49473;50.772;8.768;2023-12-20T02:36:14;6.10;99.90
2387;DHT22;49473;50.772;8.768;2023-12-20T02:38:42;6.10;99.90
2387;DHT22;49473;50.772;8.768;2023-12-20T02:41:09;6.10;99.90
2387;DHT22;49473;50.772;8.768;2023-12-20T02:43:36;6.10;99.90
2387;DHT22;49473;50.772;8.768;2023-12-20T02:46:03;6.10;99.90
2387;DHT22;49473;50.772;8.768;2023-12-20T02:48:29;6.20;99.90
2387;DHT22;49473;50.772;8.768;2023-12-20T02:50:56;6.20;99.90
2387;DHT22;49473;50.772;8.768;2023-12-20T02:53:23;6.20;99.90
2387;DHT22;49473;50.772;8.768;2023-12-20T02:55:51;6.20;99.90
2387;DHT22;49473;50.772;8.768;2023-12-20T02:58:18;6.10;99.90
2387;DHT22;49473;50.772;8.768;2023-12-20T03:00:44;6.10;99.90
2387;DHT22;49473;50.772;8.768;2023-12-20T03:03:11;6.10;99.90
2387;DHT22;49473;50.772;8.768;2023-12-20T03:05:38;6.10;99.90
2387;DHT22;49473;50.772;8.768;2023-12-20T03:08:05;6.10;99.90
2387;DHT22;49473;50.772;8.768;2023-12-20T03:10:32;6.00;99.90
2387;DHT22;49473;50.772;8.768;2023-12-20T03:13:00;5.90;99.90
2387;DHT22;49473;50.772;8.768;2023-12-20T03:15:27;5.90;99.90
2387;DHT22;49473;50.772;8.768;2023-12-20T03:17:53;5.80;99.90
2387;DHT22;49473;50.772;8.768;2023-12-20T03:20:20;5.70;99.90
2387;DHT22;49473;50.772;8.768;2023-12-20T03:22:47;5.70;99.90
2387;DHT22;49473;50.772;8.768;2023-12-20T03:25:13;5.60;99.90
2387;DHT22;49473;50.772;8.768;2023-12-20T03:27:40;5.60;99.90
2387;DHT22;49473;50.772;8.768;2023-12-20T03:30:09;5.60;99.90
2387;DHT22;49473;50.772;8.768;2023-12-20T03:32:37;5.70;99.90
2387;DHT22;49473;50.772;8.768;2023-12-20T03:35:05;5.60;99.90
2387;DHT22;49473;50.772;8.768;2023-12-20T03:37:32;5.70;99.90
2387;DHT22;49473;50.772;8.768;2023-12-20T03:39:58;5.60;99.90
2387;DHT22;49473;50.772;8.768;2023-12-20T03:42:25;5.70;99.90
2387;DHT22;49473;50.772;8.768;2023-12-20T03:44:52;5.60;99.90
2387;DHT22;49473;50.772;8.768;2023-12-20T03:47:20;5.60;99.90
2387;DHT22;49473;50.772;8.768;2023-12-20T03:49:47;5.60;99.90
2387;DHT22;49473;50.772;8.768;2023-12-20T03:52:14;5.50;99.90
2387;DHT22;49473;50.772;8.768;2023-12-20T03:54:40;5.50;99.90
2387;DHT22;49473;50.772;8.768;2023-12-20T03:57:08;5.40;99.90
2387;DHT22;49473;50.772;8.768;2023-12-20T03:59:35;5.40;99.90
2387;DHT22;49473;50.772;8.768;2023-12-20T04:02:02;5.30;99.90
2387;DHT22;49473;50.772;8.768;2023-12-20T04:04:30;5.30;99.90
2387;DHT22;49473;50.772;8.768;2023-12-20T04:06:57;5.30;99.90
2387;DHT22;49473;50.772;8.768;2023-12-20T04:09:24;5.40;99.90
2387;DHT22;49473;50.772;8.768;2023-12-20T04:11:50;5.40;99.90
2387;DHT22;49473;50.772;8.768;2023-12-20T04:14:17;5.50;99.90
2387;DHT22;49473;50.772;8.768;2023-12-20T04:16:44;5.50;99.90
2387;DHT22;49473;50.772;8.768;2023-12-20T04:19:11;5.60;99.90
2387;DHT22;49473;50.772;8.768;2023-12-20T04:21:39;5.60;99.90
2387;DHT22;49473;50.772;8.768;2023-12-20T04:24:06;5.50;99.90
2387;DHT22;49473;50.772;8.768;2023-12-20T04:26:32;5.40;99.90
2387;DHT22;49473;50.772;8.768;2023-12-20T04:28:59;5.40;99.90
2387;DHT22;49473;50.772;8.768;2023-12-20T04:31:26;5.30;99.90
2387;DHT22;49473;50.772;8.768;2023-12-20T04:33:52;5.20;99.90
2387;DHT22;49473;50.772;8.768;2023-12-20T04:36:19;5.20;99.90
2387;DHT22;49473;50.772;8.768;2023-12-20T04:38:47;5.10;99.90
2387;DHT22;49473;50.772;8.768;2023-12-20T04:41:14;5.10;99.90
2387;DHT22;49473;50.772;8.768;2023-12-20T04:43:41;5.00;99.90
2387;DHT22;49473;50.772;8.768;2023-12-20T04:46:08;4.90;99.90
2387;DHT22;49473;50.772;8.768;2023-12-20T04:48:34;4.90;99.90
2387;DHT22;49473;50.772;8.768;2023-12-20T04:51:01;4.90;99.90
2387;DHT22;49473;50.772;8.768;2023-12-20T04:53:28;5.00;99.90
2387;DHT22;49473;50.772;8.768;2023-12-20T04:55:56;5.10;99.90
2387;DHT22;49473;50.772;8.768;2023-12-20T04:58:22;5.10;99.90
2387;DHT22;49473;50.772;8.768;2023-12-20T05:00:49;5.20;99.90
2387;DHT22;49473;50.772;8.768;2023-12-20T05:03:16;5.30;99.90
2387;DHT22;49473;50.772;8.768;2023-12-20T05:05:43;5.40;99.90
2387;DHT22;49473;50.772;8.768;2023-12-20T05:08:09;5.50;99.90
2387;DHT22;49473;50.772;8.768;2023-12-20T05:10:36;5.50;99.90
2387;DHT22;49473;50.772;8.768;2023-12-20T05:13:04;5.50;99.90
2387;DHT22;49473;50.772;8.768;2023-12-20T05:15:31;5.60;99.90
2387;DHT22;49473;50.772;8.768;2023-12-20T05:17:58;5.60;99.90
2387;DHT22;49473;50.772;8.768;2023-12-20T05:20:24;5.60;99.90
2387;DHT22;49473;50.772;8.768;2023-12-20T05:22:51;5.60;99.90
2387;DHT22;49473;50.772;8.768;2023-12-20T05:25:18;5.50;99.90
2387;DHT22;49473;50.772;8.768;2023-12-20T05:27:44;5.60;99.90
2387;DHT22;49473;50.772;8.768;2023-12-20T05:30:13;5.50;99.90
2387;DHT22;49473;50.772;8.768;2023-12-20T05:32:40;5.60;99.90
2387;DHT22;49473;50.772;8.768;2023-12-20T05:35:07;5.60;99.90
2387;DHT22;49473;50.772;8.768;2023-12-20T05:37:34;5.50;99.90
2387;DHT22;49473;50.772;8.768;2023-12-20T05:40:00;5.50;99.90
2387;DHT22;49473;50.772;8.768;2023-12-20T05:42:28;5.50;99.90
2387;DHT22;49473;50.772;8.768;2023-12-20T05:44:54;5.50;99.90
2387;DHT22;49473;50.772;8.768;2023-12-20T05:47:22;5.50;99.90
2387;DHT22;49473;50.772;8.768;2023-12-20T05:49:49;5.40;99.90
2387;DHT22;49473;50.772;8.768;2023-12-20T05:52:16;5.40;99.90
2387;DHT22;49473;50.772;8.768;2023-12-20T05:54:43;5.40;99.90
2387;DHT22;49473;50.772;8.768;2023-12-20T05:57:10;5.30;99.90
2387;DHT22;49473;50.772;8.768;2023-12-20T05:59:36;5.30;99.90
2387;DHT22;49473;50.772;8.768;2023-12-20T06:02:03;5.30;99.90
2387;DHT22;49473;50.772;8.768;2023-12-20T06:04:32;5.30;99.90
2387;DHT22;49473;50.772;8.768;2023-12-20T06:06:59;5.30;99.90
2387;DHT22;49473;50.772;8.768;2023-12-20T06:09:27;5.30;99.90
2387;DHT22;49473;50.772;8.768;2023-12-20T06:11:53;5.30;99.90
2387;DHT22;49473;50.772;8.768;2023-12-20T06:14:19;5.30;99.90
2387;DHT22;49473;50.772;8.768;2023-12-20T06:16:46;5.20;99.90
2387;DHT22;49473;50.772;8.768;2023-12-20T06:19:12;5.20;99.90
2387;DHT22;49473;50.772;8.768;2023-12-20T06:21:41;5.20;99.90
2387;DHT22;49473;50.772;8.768;2023-12-20T06:24:07;5.30;99.90
2387;DHT22;49473;50.772;8.768;2023-12-20T06:26:35;5.20;99.90
2387;DHT22;49473;50.772;8.768;2023-12-20T06:29:01;5.10;99.90
2387;DHT22;49473;50.772;8.768;2023-12-20T06:31:28;5.10;99.90
2387;DHT22;49473;50.772;8.768;2023-12-20T06:33:55;5.20;99.90
2387;DHT22;49473;50.772;8.768;2023-12-20T06:36:25;5.20;99.90
2387;DHT22;49473;50.772;8.768;2023-12-20T06:38:53;5.10;99.90
2387;DHT22;49473;50.772;8.768;2023-12-20T06:41:20;5.10;99.90
2387;DHT22;49473;50.772;8.768;2023-12-20T06:43:46;5.10;99.90
2387;DHT22;49473;50.772;8.768;2023-12-20T06:46:13;5.00;99.90
2387;DHT22;49473;50.772;8.768;2023-12-20T06:48:40;5.00;99.90
2387;DHT22;49473;50.772;8.768;2023-12-20T06:51:10;4.90;99.90
2387;DHT22;49473;50.772;8.768;2023-12-20T06:53:37;4.90;99.90
2387;DHT22;49473;50.772;8.768;2023-12-20T06:56:06;4.90;99.90
2387;DHT22;49473;50.772;8.768;2023-12-20T06:58:32;5.00;99.90
2387;DHT22;49473;50.772;8.768;2023-12-20T07:00:59;5.00;99.90
2387;DHT22;49473;50.772;8.768;2023-12-20T07:03:26;5.00;99.90
2387;DHT22;49473;50.772;8.768;2023-12-20T07:05:53;5.10;99.90
2387;DHT22;49473;50.772;8.768;2023-12-20T07:08:20;5.20;99.90
2387;DHT22;49473;50.772;8.768;2023-12-20T07:10:46;5.20;99.90
2387;DHT22;49473;50.772;8.768;2023-12-20T07:13:14;5.30;99.90
2387;DHT22;49473;50.772;8.768;2023-12-20T07:15:41;5.30;99.90
2387;DHT22;49473;50.772;8.768;2023-12-20T07:18:10;5.20;99.90
2387;DHT22;49473;50.772;8.768;2023-12-20T07:20:37;5.20;99.90
2387;DHT22;49473;50.772;8.768;2023-12-20T07:23:04;5.20;99.90
2387;DHT22;49473;50.772;8.768;2023-12-20T07:25:31;5.30;99.90
2387;DHT22;49473;50.772;8.768;2023-12-20T07:27:58;5.30;99.90
2387;DHT22;49473;50.772;8.768;2023-12-20T07:30:26;5.30;99.90
2387;DHT22;49473;50.772;8.768;2023-12-20T07:32:52;5.30;99.90
2387;DHT22;49473;50.772;8.768;2023-12-20T07:35:19;5.30;99.90
2387;DHT22;49473;50.772;8.768;2023-12-20T07:37:46;5.30;99.90
2387;DHT22;49473;50.772;8.768;2023-12-20T07:40:13;5.40;99.90
2387;DHT22;49473;50.772;8.768;2023-12-20T07:42:41;5.40;99.90
2387;DHT22;49473;50.772;8.768;2023-12-20T07:45:09;5.30;99.90
2387;DHT22;49473;50.772;8.768;2023-12-20T07:47:37;5.30;99.90
2387;DHT22;49473;50.772;8.768;2023-12-20T07:50:04;5.40;99.90
2387;DHT22;49473;50.772;8.768;2023-12-20T07:52:31;5.30;99.90
2387;DHT22;49473;50.772;8.768;2023-12-20T07:54:58;5.30;99.90
2387;DHT22;49473;50.772;8.768;2023-12-20T07:57:25;5.30;99.90
2387;DHT22;49473;50.772;8.768;2023-12-20T07:59:51;5.30;99.90
2387;DHT22;49473;50.772;8.768;2023-12-20T08:02:18;5.30;99.90
2387;DHT22;49473;50.772;8.768;2023-12-20T08:04:48;5.30;99.90
2387;DHT22;49473;50.772;8.768;2023-12-20T08:07:14;5.40;99.90
2387;DHT22;49473;50.772;8.768;2023-12-20T08:09:41;5.40;99.90
2387;DHT22;49473;50.772;8.768;2023-12-20T08:12:09;5.50;99.90
2387;DHT22;49473;50.772;8.768;2023-12-20T08:14:36;5.40;99.90
2387;DHT22;49473;50.772;8.768;2023-12-20T08:17:03;5.50;99.90
2387;DHT22;49473;50.772;8.768;2023-12-20T08:19:30;5.50;99.90
2387;DHT22;49473;50.772;8.768;2023-12-20T08:21:58;5.50;99.90
2387;DHT22;49473;50.772;8.768;2023-12-20T08:24:24;5.50;99.90
2387;DHT22;49473;50.772;8.768;2023-12-20T08:26:51;5.60;99.90
2387;DHT22;49473;50.772;8.768;2023-12-20T08:29:18;5.60;99.90
2387;DHT22;49473;50.772;8.768;2023-12-20T08:31:46;5.60;99.90
2387;DHT22;49473;50.772;8.768;2023-12-20T08:34:14;5.60;99.90
2387;DHT22;49473;50.772;8.768;2023-12-20T08:36:40;5.70;99.90
2387;DHT22;49473;50.772;8.768;2023-12-20T08:39:08;5.70;99.90
2387;DHT22;49473;50.772;8.768;2023-12-20T08:41:36;5.70;99.90
2387;DHT22;49473;50.772;8.768;2023-12-20T08:44:03;5.70;99.90
2387;DHT22;49473;50.772;8.768;2023-12-20T08:46:31;5.80;99.90
2387;DHT22;49473;50.772;8.768;2023-12-20T08:48:58;5.70;99.90
2387;DHT22;49473;50.772;8.768;2023-12-20T08:51:25;5.80;99.90
2387;DHT22;49473;50.772;8.768;2023-12-20T08:53:54;5.80;99.90
2387;DHT22;49473;50.772;8.768;2023-12-20T08:56:22;5.70;99.90
2387;DHT22;49473;50.772;8.768;2023-12-20T08:58:48;5.70;99.90
2387;DHT22;49473;50.772;8.768;2023-12-20T09:01:15;5.70;99.90
2387;DHT22;49473;50.772;8.768;2023-12-20T09:03:42;5.70;99.90
2387;DHT22;49473;50.772;8.768;2023-12-20T09:06:09;5.70;99.90
2387;DHT22;49473;50.772;8.768;2023-12-20T09:08:35;5.80;99.90
2387;DHT22;49473;50.772;8.768;2023-12-20T09:11:02;5.80;99.90
2387;DHT22;49473;50.772;8.768;2023-12-20T09:13:30;5.80;99.90
2387;DHT22;49473;50.772;8.768;2023-12-20T09:15:57;5.80;99.90
2387;DHT22;49473;50.772;8.768;2023-12-20T09:18:24;5.80;99.90
2387;DHT22;49473;50.772;8.768;2023-12-20T09:20:51;5.90;99.90
2387;DHT22;49473;50.772;8.768;2023-12-20T09:23:18;5.90;99.90
2387;DHT22;49473;50.772;8.768;2023-12-20T09:25:44;5.90;99.90
2387;DHT22;49473;50.772;8.768;2023-12-20T09:28:11;6.00;99.90
2387;DHT22;49473;50.772;8.768;2023-12-20T09:30:39;6.00;99.90
2387;DHT22;49473;50.772;8.768;2023-12-20T09:33:06;6.00;99.90
2387;DHT22;49473;50.772;8.768;2023-12-20T09:35:33;6.10;99.90
2387;DHT22;49473;50.772;8.768;2023-12-20T09:38:00;6.10;99.90
2387;DHT22;49473;50.772;8.768;2023-12-20T09:40:26;6.10;99.90
2387;DHT22;49473;50.772;8.768;2023-12-20T09:42:56;6.00;99.90
2387;DHT22;49473;50.772;8.768;2023-12-20T09:45:23;6.00;99.90
2387;DHT22;49473;50.772;8.768;2023-12-20T09:47:53;6.00;99.90
2387;DHT22;49473;50.772;8.768;2023-12-20T09:50:22;6.00;99.90
2387;DHT22;49473;50.772;8.768;2023-12-20T09:52:51;6.00;99.90
2387;DHT22;49473;50.772;8.768;2023-12-20T09:55:18;6.00;99.90
2387;DHT22;49473;50.772;8.768;2023-12-20T09:57:45;6.10;99.90
2387;DHT22;49473;50.772;8.768;2023-12-20T10:00:13;6.20;99.90
2387;DHT22;49473;50.772;8.768;2023-12-20T10:02:45;6.20;99.90
2387;DHT22;49473;50.772;8.768;2023-12-20T10:05:16;6.10;99.90
2387;DHT22;49473;50.772;8.768;2023-12-20T10:07:44;6.10;99.90
2387;DHT22;49473;50.772;8.768;2023-12-20T10:10:12;6.10;99.90
2387;DHT22;49473;50.772;8.768;2023-12-20T10:12:39;6.20;99.90
2387;DHT22;49473;50.772;8.768;2023-12-20T10:15:06;6.20;99.90
2387;DHT22;49473;50.772;8.768;2023-12-20T10:17:35;6.20;99.90
2387;DHT22;49473;50.772;8.768;2023-12-20T10:20:03;6.10;99.90
2387;DHT22;49473;50.772;8.768;2023-12-20T10:22:36;6.10;99.90
2387;DHT22;49473;50.772;8.768;2023-12-20T10:25:04;6.10;99.90
2387;DHT22;49473;50.772;8.768;2023-12-20T10:27:31;6.10;99.90
2387;DHT22;49473;50.772;8.768;2023-12-20T10:29:58;6.00;99.90
2387;DHT22;49473;50.772;8.768;2023-12-20T10:32:27;6.10;99.90
2387;DHT22;49473;50.772;8.768;2023-12-20T10:34:55;6.10;99.90
2387;DHT22;49473;50.772;8.768;2023-12-20T10:37:20;6.10;99.90
2387;DHT22;49473;50.772;8.768;2023-12-20T10:39:51;6.10;99.90
2387;DHT22;49473;50.772;8.768;2023-12-20T10:42:20;6.10;99.90
2387;DHT22;49473;50.772;8.768;2023-12-20T10:44:47;6.10;99.90
2387;DHT22;49473;50.772;8.768;2023-12-20T10:47:15;6.10;99.90
2387;DHT22;49473;50.772;8.768;2023-12-20T10:49:43;6.10;99.90
2387;DHT22;49473;50.772;8.768;2023-12-20T10:52:12;6.10;99.90
2387;DHT22;49473;50.772;8.768;2023-12-20T10:54:39;6.10;99.90
2387;DHT22;49473;50.772;8.768;2023-12-20T10:57:08;6.10;99.90
2387;DHT22;49473;50.772;8.768;2023-12-20T10:59:37;6.00;99.90
2387;DHT22;49473;50.772;8.768;2023-12-20T11:02:04;6.10;99.90
2387;DHT22;49473;50.772;8.768;2023-12-20T11:04:39;6.10;99.90
2387;DHT22;49473;50.772;8.768;2023-12-20T11:07:16;6.00;99.90
2387;DHT22;49473;50.772;8.768;2023-12-20T11:09:49;6.00;99.90
2387;DHT22;49473;50.772;8.768;2023-12-20T11:12:24;6.00;99.90
2387;DHT22;49473;50.772;8.768;2023-12-20T11:14:54;6.00;99.90
2387;DHT22;49473;50.772;8.768;2023-12-20T11:17:21;6.10;99.90
2387;DHT22;49473;50.772;8.768;2023-12-20T11:20:09;6.10;99.90
2387;DHT22;49473;50.772;8.768;2023-12-20T11:22:40;6.00;99.90
2387;DHT22;49473;50.772;8.768;2023-12-20T11:25:17;6.00;99.90
2387;DHT22;49473;50.772;8.768;2023-12-20T11:28:08;5.90;99.90
2387;DHT22;49473;50.772;8.768;2023-12-20T11:30:42;6.00;99.90
2387;DHT22;49473;50.772;8.768;2023-12-20T11:33:13;5.90;99.90
2387;DHT22;49473;50.772;8.768;2023-12-20T11:35:40;5.90;99.90
2387;DHT22;49473;50.772;8.768;2023-12-20T11:38:08;5.90;99.90
2387;DHT22;49473;50.772;8.768;2023-12-20T11:40:35;6.00;99.90
2387;DHT22;49473;50.772;8.768;2023-12-20T11:43:03;6.00;99.90
2387;DHT22;49473;50.772;8.768;2023-12-20T11:45:31;6.10;99.90
2387;DHT22;49473;50.772;8.768;2023-12-20T11:47:58;6.10;99.90
2387;DHT22;49473;50.772;8.768;2023-12-20T11:50:25;6.20;99.90
2387;DHT22;49473;50.772;8.768;2023-12-20T11:52:53;6.10;99.90
2387;DHT22;49473;50.772;8.768;2023-12-20T11:55:21;6.20;99.90
2387;DHT22;49473;50.772;8.768;2023-12-20T11:57:47;6.40;99.90
2387;DHT22;49473;50.772;8.768;2023-12-20T12:00:16;6.30;99.90
2387;DHT22;49473;50.772;8.768;2023-12-20T12:02:55;6.30;99.90
2387;DHT22;49473;50.772;8.768;2023-12-20T12:05:22;6.40;99.90
2387;DHT22;49473;50.772;8.768;2023-12-20T12:07:48;6.30;99.90
2387;DHT22;49473;50.772;8.768;2023-12-20T12:10:15;6.30;99.90
2387;DHT22;49473;50.772;8.768;2023-12-20T12:12:42;6.30;99.90
2387;DHT22;49473;50.772;8.768;2023-12-20T12:15:09;6.40;99.90
2387;DHT22;49473;50.772;8.768;2023-12-20T12:17:37;6.40;99.90
2387;DHT22;49473;50.772;8.768;2023-12-20T12:20:05;6.30;99.90
2387;DHT22;49473;50.772;8.768;2023-12-20T12:22:32;6.20;99.90
2387;DHT22;49473;50.772;8.768;2023-12-20T12:25:08;6.20;99.90
2387;DHT22;49473;50.772;8.768;2023-12-20T12:27:36;6.30;99.90
2387;DHT22;49473;50.772;8.768;2023-12-20T12:30:05;6.50;99.90
2387;DHT22;49473;50.772;8.768;2023-12-20T12:32:33;6.70;99.90
2387;DHT22;49473;50.772;8.768;2023-12-20T12:35:03;6.90;99.90
2387;DHT22;49473;50.772;8.768;2023-12-20T12:37:33;6.90;99.90
2387;DHT22;49473;50.772;8.768;2023-12-20T12:40:00;6.80;99.90
2387;DHT22;49473;50.772;8.768;2023-12-20T12:42:27;6.80;99.90
2387;DHT22;49473;50.772;8.768;2023-12-20T12:44:54;6.90;99.90
2387;DHT22;49473;50.772;8.768;2023-12-20T12:47:21;6.80;99.90
2387;DHT22;49473;50.772;8.768;2023-12-20T12:49:51;6.80;99.90
2387;DHT22;49473;50.772;8.768;2023-12-20T12:52:20;6.80;99.90
2387;DHT22;49473;50.772;8.768;2023-12-20T12:54:46;6.80;99.90
2387;DHT22;49473;50.772;8.768;2023-12-20T12:57:14;6.70;99.90
2387;DHT22;49473;50.772;8.768;2023-12-20T12:59:41;6.60;99.90
2387;DHT22;49473;50.772;8.768;2023-12-20T13:02:09;6.50;99.90
2387;DHT22;49473;50.772;8.768;2023-12-20T13:04:36;6.30;99.90
2387;DHT22;49473;50.772;8.768;2023-12-20T13:07:03;6.40;99.90
2387;DHT22;49473;50.772;8.768;2023-12-20T13:09:31;6.30;99.90
2387;DHT22;49473;50.772;8.768;2023-12-20T13:11:58;6.30;99.90
2387;DHT22;49473;50.772;8.768;2023-12-20T13:14:25;6.20;99.90
2387;DHT22;49473;50.772;8.768;2023-12-20T13:16:51;6.10;99.90
2387;DHT22;49473;50.772;8.768;2023-12-20T13:19:18;6.10;99.90
2387;DHT22;49473;50.772;8.768;2023-12-20T13:21:45;6.10;99.90
2387;DHT22;49473;50.772;8.768;2023-12-20T13:24:11;6.10;99.90
2387;DHT22;49473;50.772;8.768;2023-12-20T13:26:40;6.10;99.90
2387;DHT22;49473;50.772;8.768;2023-12-20T13:29:06;6.10;99.90
2387;DHT22;49473;50.772;8.768;2023-12-20T13:31:33;6.10;99.90
2387;DHT22;49473;50.772;8.768;2023-12-20T13:34:01;6.10;99.90
2387;DHT22;49473;50.772;8.768;2023-12-20T13:36:28;6.00;99.90
2387;DHT22;49473;50.772;8.768;2023-12-20T13:38:55;6.00;99.90
2387;DHT22;49473;50.772;8.768;2023-12-20T13:41:22;6.00;99.90
2387;DHT22;49473;50.772;8.768;2023-12-20T13:43:50;5.90;99.90
2387;DHT22;49473;50.772;8.768;2023-12-20T13:46:17;6.00;99.90
2387;DHT22;49473;50.772;8.768;2023-12-20T13:48:43;5.90;99.90
2387;DHT22;49473;50.772;8.768;2023-12-20T13:51:10;6.00;99.90
2387;DHT22;49473;50.772;8.768;2023-12-20T13:53:37;6.00;99.90
2387;DHT22;49473;50.772;8.768;2023-12-20T13:56:05;6.00;99.90
2387;DHT22;49473;50.772;8.768;2023-12-20T13:58:31;5.90;99.90
2387;DHT22;49473;50.772;8.768;2023-12-20T14:00:59;5.90;99.90
2387;DHT22;49473;50.772;8.768;2023-12-20T14:03:25;5.90;99.90
2387;DHT22;49473;50.772;8.768;2023-12-20T14:05:52;6.00;99.90
2387;DHT22;49473;50.772;8.768;2023-12-20T14:08:18;5.90;99.90
2387;DHT22;49473;50.772;8.768;2023-12-20T14:10:45;6.00;99.90
2387;DHT22;49473;50.772;8.768;2023-12-20T14:13:12;6.00;99.90
2387;DHT22;49473;50.772;8.768;2023-12-20T14:15:39;6.00;99.90
2387;DHT22;49473;50.772;8.768;2023-12-20T14:18:07;5.90;99.90
2387;DHT22;49473;50.772;8.768;2023-12-20T14:20:34;5.90;99.90
2387;DHT22;49473;50.772;8.768;2023-12-20T14:23:01;5.90;99.90
2387;DHT22;49473;50.772;8.768;2023-12-20T14:25:28;5.90;99.90
2387;DHT22;49473;50.772;8.768;2023-12-20T14:27:56;6.00;99.90
2387;DHT22;49473;50.772;8.768;2023-12-20T14:30:23;6.00;99.90
2387;DHT22;49473;50.772;8.768;2023-12-20T14:32:50;5.90;99.90
2387;DHT22;49473;50.772;8.768;2023-12-20T14:35:18;5.90;99.90
2387;DHT22;49473;50.772;8.768;2023-12-20T14:37:45;5.90;99.90
2387;DHT22;49473;50.772;8.768;2023-12-20T14:40:12;5.90;99.90
2387;DHT22;49473;50.772;8.768;2023-12-20T14:42:41;5.80;99.90
2387;DHT22;49473;50.772;8.768;2023-12-20T14:45:08;5.80;99.90
2387;DHT22;49473;50.772;8.768;2023-12-20T14:47:36;5.90;99.90
2387;DHT22;49473;50.772;8.768;2023-12-20T14:50:02;5.80;99.90
2387;DHT22;49473;50.772;8.768;2023-12-20T14:52:32;5.80;99.90
2387;DHT22;49473;50.772;8.768;2023-12-20T14:54:59;5.80;99.90
2387;DHT22;49473;50.772;8.768;2023-12-20T14:57:26;5.80;99.90
2387;DHT22;49473;50.772;8.768;2023-12-20T14:59:55;5.80;99.90
2387;DHT22;49473;50.772;8.768;2023-12-20T15:02:21;5.80;99.90
2387;DHT22;49473;50.772;8.768;2023-12-20T15:04:48;5.80;99.90
2387;DHT22;49473;50.772;8.768;2023-12-20T15:07:16;5.80;99.90
2387;DHT22;49473;50.772;8.768;2023-12-20T15:09:44;5.90;99.90
2387;DHT22;49473;50.772;8.768;2023-12-20T15:12:13;5.80;99.90
2387;DHT22;49473;50.772;8.768;2023-12-20T15:14:40;5.90;99.90
2387;DHT22;49473;50.772;8.768;2023-12-20T15:17:06;5.80;99.90
2387;DHT22;49473;50.772;8.768;2023-12-20T15:19:33;5.80;99.90
2387;DHT22;49473;50.772;8.768;2023-12-20T15:22:00;5.80;99.90
2387;DHT22;49473;50.772;8.768;2023-12-20T15:24:29;5.90;99.90
2387;DHT22;49473;50.772;8.768;2023-12-20T15:27:05;5.90;99.90
2387;DHT22;49473;50.772;8.768;2023-12-20T15:29:32;5.90;99.90
2387;DHT22;49473;50.772;8.768;2023-12-20T15:31:59;5.90;99.90
2387;DHT22;49473;50.772;8.768;2023-12-20T15:34:25;5.90;99.90
2387;DHT22;49473;50.772;8.768;2023-12-20T15:36:52;5.90;99.90
2387;DHT22;49473;50.772;8.768;2023-12-20T15:39:19;5.90;99.90
2387;DHT22;49473;50.772;8.768;2023-12-20T15:41:45;5.90;99.90
2387;DHT22;49473;50.772;8.768;2023-12-20T15:44:13;5.90;99.90
2387;DHT22;49473;50.772;8.768;2023-12-20T15:46:41;6.00;99.90
2387;DHT22;49473;50.772;8.768;2023-12-20T15:49:08;6.00;99.90
2387;DHT22;49473;50.772;8.768;2023-12-20T15:51:36;6.00;99.90
2387;DHT22;49473;50.772;8.768;2023-12-20T15:54:03;6.00;99.90
2387;DHT22;49473;50.772;8.768;2023-12-20T15:56:32;6.00;99.90
2387;DHT22;49473;50.772;8.768;2023-12-20T15:58:59;6.00;99.90
2387;DHT22;49473;50.772;8.768;2023-12-20T16:01:27;6.00;99.90
2387;DHT22;49473;50.772;8.768;2023-12-20T16:03:55;6.00;99.90